Time;durP1;ratioP1;P1;durP2;ratioP2;P2;SDS_P1;SDS_P2;PMS_P1;PMS_P2;Temp;Humidity;BMP_temperature;BMP_pressure;BME280_temperature;BME280_humidity;BME280_pressure;Samples;Min_cycle;Max_cycle;Signal;HPM_P1;HPM_P2
2023/10/19 00:01:58;;;;;;;17.23;10.80;;;;;;;;;;4977357;28;20057;-78
2023/10/19 00:04:31;;;;;;;16.20;10.50;;;;;;;;;;4955353;28;20171;-77
2023/10/19 00:06:57;;;;;;;17.75;10.13;;;;;;;;;;4963170;28;20037;-78
2023/10/19 00:09:23;;;;;;;18.30;10.80;;;;;;;;;;4940329;28;20503;-77
2023/10/19 00:11:51;;;;;;;16.80;10.82;;;;;;;;;;4941598;28;20094;-77
2023/10/19 00:14:17;;;;;;;;;;;;;;;;;;4940751;28;20166;-77
2023/10/19 00:16:54;;;;;;;17.40;11.05;;;;;;;;;;4971731;28;20344;-77
2023/10/19 00:19:20;;;;;;;16.38;10.75;;;;;;;;;;4976016;28;20406;-77
2023/10/19 00:21:54;;;;;;;15.90;10.20;;;;;;;;;;4955822;28;20090;-77
2023/10/19 00:24:23;;;;;;;17.92;10.27;;;;;;;;;;4956711;28;20117;-77
2023/10/19 00:26:48;;;;;;;17.20;10.98;;;;;;;;;;4956389;28;20089;-78
2023/10/19 00:29:30;;;;;;;18.83;11.02;;;;;;;;;;4972102;28;20511;-77
2023/10/19 00:31:56;;;;;;;17.15;10.82;;;;;;;;;;4956569;28;20602;-77
2023/10/19 00:34:22;;;;;;;15.07;10.27;;;;;;;;;;4957535;28;20479;-77
2023/10/19 00:36:50;;;;;;;17.75;10.82;;;;;;;;;;4973578;28;20098;-77
2023/10/19 00:39:21;;;;;;;18.08;11.45;;;;;;;;;;4957772;28;20058;-77
2023/10/19 00:41:47;;;;;;;19.73;11.25;;;;;;;;;;4936597;28;20035;-77
2023/10/19 00:44:17;;;;;;;17.33;10.45;;;;;;;;;;4955956;28;20360;-77
2023/10/19 00:46:44;;;;;;;17.75;10.18;;;;;;;;;;4955094;28;20043;-77
2023/10/19 00:49:13;;;;;;;18.93;11.10;;;;;;;;;;4958252;28;20506;-76
2023/10/19 00:54:16;;;;;;;20.05;11.55;;;;;;;;;;4956546;28;20047;-76
2023/10/19 00:56:51;;;;;;;17.02;11.10;;;;;;;;;;4961406;28;20511;-76
2023/10/19 00:59:26;;;;;;;19.13;11.73;;;;;;;;;;4956982;28;20035;-77
2023/10/19 01:02:03;;;;;;;16.58;10.55;;;;;;;;;;4970096;28;20035;-77
2023/10/19 01:04:32;;;;;;;17.00;11.05;;;;;;;;;;4957157;28;20414;-76
2023/10/19 01:07:00;;;;;;;18.65;10.57;;;;;;;;;;4972473;28;20594;-76
2023/10/19 01:09:27;;;;;;;17.92;11.20;;;;;;;;;;4956366;28;20042;-76
2023/10/19 01:11:53;;;;;;;17.98;11.02;;;;;;;;;;4955809;28;20066;-77
2023/10/19 01:14:21;;;;;;;18.42;11.10;;;;;;;;;;4940664;28;20035;-76
2023/10/19 01:16:49;;;;;;;17.90;10.25;;;;;;;;;;4961475;28;20035;-77
2023/10/19 01:19:18;;;;;;;16.55;11.05;;;;;;;;;;4971736;28;20058;-77
2023/10/19 01:21:46;;;;;;;16.48;10.05;;;;;;;;;;4956135;28;20402;-77
2023/10/19 01:24:16;;;;;;;18.48;11.02;;;;;;;;;;4962093;28;20045;-77
2023/10/19 01:26:42;;;;;;;19.33;11.50;;;;;;;;;;4941419;28;22466;-77
2023/10/19 01:29:16;;;;;;;16.48;10.50;;;;;;;;;;4956526;28;20051;-77
2023/10/19 01:31:55;;;;;;;16.65;10.73;;;;;;;;;;4954961;28;20058;-77
2023/10/19 01:34:21;;;;;;;16.30;10.40;;;;;;;;;;4947253;28;20066;-77
2023/10/19 01:36:50;;;;;;;17.25;10.80;;;;;;;;;;4955267;28;20613;-77
2023/10/19 01:39:18;;;;;;;16.60;11.13;;;;;;;;;;4955394;28;20037;-77
2023/10/19 01:41:44;;;;;;;18.40;10.27;;;;;;;;;;4955800;28;20050;-77
2023/10/19 01:44:13;;;;;;;17.70;11.10;;;;;;;;;;4955227;28;20379;-76
2023/10/19 01:46:43;;;;;;;18.30;11.00;;;;;;;;;;4953547;28;20082;-77
2023/10/19 01:49:09;;;;;;;16.38;10.43;;;;;;;;;;4976838;28;20408;-76
2023/10/19 01:51:38;;;;;;;17.70;10.80;;;;;;;;;;4939064;28;20035;-76
2023/10/19 01:54:05;;;;;;;19.52;11.88;;;;;;;;;;4936240;28;20097;-76
2023/10/19 01:56:31;;;;;;;17.75;11.40;;;;;;;;;;4957414;28;20435;-77
2023/10/19 01:58:57;;;;;;;17.40;10.80;;;;;;;;;;4958502;28;20031;-77
2023/10/19 02:03:57;;;;;;;18.88;11.20;;;;;;;;;;4960211;28;20038;-76
2023/10/19 02:06:27;;;;;;;17.60;11.27;;;;;;;;;;4943470;28;20887;-77
2023/10/19 02:09:08;;;;;;;18.40;11.27;;;;;;;;;;4966140;28;20097;-76
2023/10/19 02:11:34;;;;;;;19.20;10.73;;;;;;;;;;4960148;28;20058;-76
2023/10/19 02:14:13;;;;;;;17.10;11.00;;;;;;;;;;4957818;28;20038;-76
2023/10/19 02:16:39;;;;;;;20.35;11.32;;;;;;;;;;4957909;28;20395;-76
2023/10/19 02:19:04;;;;;;;19.75;11.40;;;;;;;;;;4975995;28;20040;-76
2023/10/19 02:21:37;;;;;;;19.65;11.75;;;;;;;;;;4960519;28;20438;-77
2023/10/19 02:24:03;;;;;;;17.20;10.35;;;;;;;;;;4943000;28;20035;-77
2023/10/19 02:26:30;;;;;;;18.58;11.25;;;;;;;;;;4958083;28;20862;-77
2023/10/19 02:28:56;;;;;;;17.65;11.05;;;;;;;;;;4958893;28;20035;-76
2023/10/19 02:31:25;;;;;;;19.15;11.50;;;;;;;;;;4941285;28;20042;-76
2023/10/19 02:33:52;;;;;;;18.17;11.55;;;;;;;;;;4960603;28;20033;-77
2023/10/19 02:36:19;;;;;;;17.77;11.10;;;;;;;;;;4964357;28;20031;-77
2023/10/19 02:38:48;;;;;;;17.40;10.40;;;;;;;;;;4950410;28;20031;-77
2023/10/19 02:41:15;;;;;;;19.83;11.05;;;;;;;;;;4965233;28;20035;-77
2023/10/19 02:43:41;;;;;;;19.02;11.27;;;;;;;;;;4975927;28;20118;-76
2023/10/19 02:46:07;;;;;;;20.48;11.48;;;;;;;;;;4972909;28;20201;-76
2023/10/19 02:48:32;;;;;;;17.20;11.85;;;;;;;;;;4959908;28;20126;-76
2023/10/19 02:51:05;;;;;;;19.95;11.70;;;;;;;;;;4958149;28;20043;-76
2023/10/19 02:53:32;;;;;;;19.25;11.52;;;;;;;;;;4959786;28;20549;-76
2023/10/19 02:56:01;;;;;;;20.92;11.63;;;;;;;;;;4956798;28;20047;-76
2023/10/19 02:58:28;;;;;;;20.52;11.95;;;;;;;;;;4963837;28;20037;-76
2023/10/19 03:00:54;;;;;;;19.73;11.73;;;;;;;;;;4980076;28;20125;-76
2023/10/19 03:03:20;;;;;;;16.87;11.17;;;;;;;;;;4958754;28;20402;-76
2023/10/19 03:05:46;;;;;;;17.98;11.23;;;;;;;;;;4974443;28;20035;-77
2023/10/19 03:08:15;;;;;;;23.05;12.20;;;;;;;;;;4958511;28;20511;-76
2023/10/19 03:10:43;;;;;;;19.67;11.57;;;;;;;;;;4955955;28;21919;-76
2023/10/19 03:13:09;;;;;;;19.85;12.00;;;;;;;;;;4958013;28;20143;-77
2023/10/19 03:15:35;;;;;;;19.80;11.27;;;;;;;;;;4957739;28;20446;-77
2023/10/19 03:18:01;;;;;;;19.35;11.40;;;;;;;;;;4964746;28;20035;-76
2023/10/19 03:20:28;;;;;;;20.90;11.68;;;;;;;;;;4948485;28;20085;-77
2023/10/19 03:22:58;;;;;;;17.13;11.80;;;;;;;;;;4964201;28;20071;-77
2023/10/19 03:28:16;;;;;;;20.02;12.02;;;;;;;;;;4958344;28;20454;-77
2023/10/19 03:30:41;;;;;;;20.30;12.27;;;;;;;;;;4974298;28;20577;-76
2023/10/19 03:33:08;;;;;;;19.27;12.40;;;;;;;;;;4974059;28;20043;-77
2023/10/19 03:35:38;;;;;;;20.65;11.88;;;;;;;;;;4947784;28;20046;-77
2023/10/19 03:38:14;;;;;;;18.17;11.60;;;;;;;;;;4958831;28;20050;-77
2023/10/19 03:40:39;;;;;;;18.52;11.95;;;;;;;;;;4972178;28;20491;-77
2023/10/19 03:43:14;;;;;;;20.30;12.10;;;;;;;;;;4959192;28;20043;-77
2023/10/19 03:45:44;;;;;;;20.58;12.70;;;;;;;;;;4956428;28;20051;-76
2023/10/19 03:48:10;;;;;;;19.05;11.50;;;;;;;;;;4956651;28;20039;-77
2023/10/19 03:50:36;;;;;;;20.65;12.45;;;;;;;;;;4958610;28;20121;-77
2023/10/19 03:53:04;;;;;;;19.02;12.15;;;;;;;;;;4957964;28;20043;-76
2023/10/19 03:55:30;;;;;;;19.27;12.02;;;;;;;;;;4957305;28;20602;-77
2023/10/19 03:57:55;;;;;;;20.90;12.88;;;;;;;;;;4973498;28;20031;-77
2023/10/19 04:00:24;;;;;;;21.50;12.55;;;;;;;;;;4958427;28;20058;-77
2023/10/19 04:02:53;;;;;;;21.88;12.55;;;;;;;;;;4956840;28;20046;-77
2023/10/19 04:05:22;;;;;;;23.48;13.07;;;;;;;;;;4958088;28;20086;-77
2023/10/19 04:07:54;;;;;;;19.95;12.25;;;;;;;;;;4955891;28;20053;-77
2023/10/19 04:13:00;;;;;;;19.58;12.38;;;;;;;;;;4956268;28;20049;-76
2023/10/19 04:15:26;;;;;;;22.02;13.75;;;;;;;;;;4956212;28;20773;-77
2023/10/19 04:17:54;;;;;;;20.92;12.30;;;;;;;;;;4947802;28;20035;-77
2023/10/19 04:22:47;;;;;;;22.95;13.60;;;;;;;;;;4973694;28;20186;-78
2023/10/19 04:25:15;;;;;;;24.30;13.48;;;;;;;;;;4963676;28;21570;-78
2023/10/19 04:27:42;;;;;;;23.05;13.15;;;;;;;;;;4946990;28;20442;-78
2023/10/19 04:30:26;;;;;;;20.30;12.93;;;;;;;;;;4956112;28;20126;-77
2023/10/19 04:32:52;;;;;;;23.85;13.60;;;;;;;;;;4958635;28;20034;-77
2023/10/19 04:35:22;;;;;;;21.20;13.23;;;;;;;;;;4947806;28;20420;-77
2023/10/19 04:37:52;;;;;;;22.77;12.57;;;;;;;;;;4962920;28;20043;-77
2023/10/19 04:40:21;;;;;;;23.70;13.07;;;;;;;;;;4956382;28;20391;-79
2023/10/19 04:42:57;;;;;;;21.80;13.77;;;;;;;;;;5054387;27;20412;-78
2023/10/19 04:45:23;;;;;;;21.75;14.57;;;;;;;;;;5054397;28;20135;-80
2023/10/19 04:47:52;;;;;;;24.00;14.20;;;;;;;;;;5056837;28;20106;-79
2023/10/19 04:50:18;;;;;;;21.50;12.95;;;;;;;;;;5040133;28;20045;-80
2023/10/19 04:52:44;;;;;;;23.23;14.20;;;;;;;;;;5083936;28;20129;-81
2023/10/19 04:55:09;;;;;;;20.45;13.63;;;;;;;;;;5076418;28;20032;-78
2023/10/19 04:57:35;;;;;;;22.70;13.63;;;;;;;;;;5053373;28;20077;-78
2023/10/19 05:00:00;;;;;;;20.73;13.10;;;;;;;;;;5053393;28;20040;-78
2023/10/19 05:02:26;;;;;;;22.83;14.13;;;;;;;;;;5066098;28;20037;-78
2023/10/19 05:04:51;;;;;;;22.85;14.52;;;;;;;;;;5066563;28;20041;-78
2023/10/19 05:07:16;;;;;;;26.95;14.93;;;;;;;;;;5069289;28;20518;-78
2023/10/19 05:09:53;;;;;;;22.40;13.18;;;;;;;;;;5055541;28;20459;-78
2023/10/19 05:12:19;;;;;;;23.33;13.95;;;;;;;;;;5063131;28;20034;-78
2023/10/19 05:14:45;;;;;;;22.23;13.65;;;;;;;;;;5048375;28;20048;-77
2023/10/19 05:17:11;;;;;;;23.38;13.63;;;;;;;;;;5045161;28;20742;-77
2023/10/19 05:19:38;;;;;;;23.42;13.88;;;;;;;;;;5062966;28;20034;-78
2023/10/19 05:22:08;;;;;;;23.05;13.95;;;;;;;;;;5070569;28;20090;-77
2023/10/19 05:24:35;;;;;;;23.20;14.25;;;;;;;;;;5050392;28;20419;-77
2023/10/19 05:27:00;;;;;;;24.77;14.70;;;;;;;;;;5056613;28;20033;-77
2023/10/19 05:29:25;;;;;;;23.23;14.70;;;;;;;;;;5049799;28;20040;-78
2023/10/19 05:31:57;;;;;;;26.60;14.60;;;;;;;;;;5065775;28;20033;-77
2023/10/19 05:34:44;;;;;;;25.42;14.80;;;;;;;;;;5075329;28;20504;-78
2023/10/19 05:37:10;;;;;;;27.02;15.60;;;;;;;;;;5068230;28;20119;-77
2023/10/19 05:39:36;;;;;;;25.35;15.60;;;;;;;;;;5065875;28;20042;-77
2023/10/19 05:42:01;;;;;;;27.63;15.98;;;;;;;;;;5077849;28;20048;-77
2023/10/19 05:44:30;;;;;;;24.40;15.27;;;;;;;;;;5073840;27;20055;-77
2023/10/19 05:46:56;;;;;;;26.15;15.15;;;;;;;;;;5089173;27;20496;-77
2023/10/19 05:49:23;;;;;;;27.58;16.17;;;;;;;;;;5085861;28;20039;-78
2023/10/19 05:51:50;;;;;;;25.75;15.70;;;;;;;;;;5063924;28;20557;-78
2023/10/19 05:54:16;;;;;;;28.73;15.90;;;;;;;;;;5033516;28;20064;-78
2023/10/19 05:56:42;;;;;;;26.80;16.90;;;;;;;;;;5049773;28;20132;-77
2023/10/19 05:59:10;;;;;;;27.05;16.23;;;;;;;;;;5070694;28;20132;-78
2023/10/19 06:01:37;;;;;;;26.67;16.95;;;;;;;;;;5070706;28;20040;-77
2023/10/19 06:04:02;;;;;;;26.80;15.97;;;;;;;;;;5081978;28;20119;-78
2023/10/19 06:06:28;;;;;;;27.92;16.73;;;;;;;;;;5063581;28;20791;-78
2023/10/19 06:08:54;;;;;;;27.08;17.23;;;;;;;;;;5081689;28;20028;-78
2023/10/19 06:11:20;;;;;;;31.95;17.35;;;;;;;;;;5069376;28;20036;-78
2023/10/19 06:13:46;;;;;;;26.75;17.45;;;;;;;;;;5064331;28;20032;-78
2023/10/19 06:16:11;;;;;;;27.77;16.73;;;;;;;;;;5058923;28;20036;-78
2023/10/19 06:18:37;;;;;;;26.70;16.80;;;;;;;;;;5055204;28;20121;-76
2023/10/19 06:21:03;;;;;;;28.48;16.95;;;;;;;;;;5071335;28;20153;-77
2023/10/19 06:23:31;;;;;;;30.25;16.83;;;;;;;;;;5073057;28;20636;-76
2023/10/19 06:25:57;;;;;;;30.15;17.75;;;;;;;;;;5070813;28;20060;-76
2023/10/19 06:28:25;;;;;;;29.27;18.63;;;;;;;;;;5059227;28;20037;-76
2023/10/19 06:30:50;;;;;;;29.08;18.63;;;;;;;;;;5063194;28;20458;-77
2023/10/19 06:33:22;;;;;;;27.58;17.67;;;;;;;;;;5081105;28;20029;-76
2023/10/19 06:35:48;;;;;;;29.55;18.20;;;;;;;;;;5073955;28;20463;-77
2023/10/19 06:38:14;;;;;;;27.52;17.73;;;;;;;;;;5056902;28;24605;-77
2023/10/19 06:40:40;;;;;;;28.80;18.05;;;;;;;;;;5069086;28;20032;-77
2023/10/19 06:43:06;;;;;;;28.65;17.90;;;;;;;;;;5057527;28;20504;-76
2023/10/19 06:45:32;;;;;;;32.47;18.33;;;;;;;;;;5069891;28;20036;-76
2023/10/19 06:47:59;;;;;;;32.05;18.75;;;;;;;;;;5059583;28;20028;-76
2023/10/19 06:50:31;;;;;;;29.40;18.25;;;;;;;;;;5037785;28;20067;-77
2023/10/19 06:52:57;;;;;;;31.20;17.92;;;;;;;;;;5069036;28;20119;-75
2023/10/19 06:55:22;;;;;;;32.15;18.33;;;;;;;;;;5061388;28;20119;-75
2023/10/19 06:57:52;;;;;;;30.80;17.63;;;;;;;;;;5060004;28;20032;-76
2023/10/19 07:00:22;;;;;;;27.85;17.90;;;;;;;;;;5079804;28;20554;-76
2023/10/19 07:02:55;;;;;;;30.38;18.45;;;;;;;;;;5060520;28;20036;-76
2023/10/19 07:05:22;;;;;;;28.80;18.10;;;;;;;;;;5034698;28;20576;-76
2023/10/19 07:07:51;;;;;;;34.45;18.90;;;;;;;;;;5034328;28;20370;-76
2023/10/19 07:10:18;;;;;;;27.40;17.45;;;;;;;;;;5043379;28;20067;-75
2023/10/19 07:12:46;;;;;;;27.58;18.20;;;;;;;;;;5036731;28;20075;-76
2023/10/19 07:15:15;;;;;;;30.77;18.40;;;;;;;;;;5043274;28;20049;-76
2023/10/19 07:17:44;;;;;;;27.98;18.20;;;;;;;;;;5053105;28;20152;-77
2023/10/19 07:20:25;;;;;;;28.05;17.60;;;;;;;;;;5067937;28;20097;-77
2023/10/19 07:22:51;;;;;;;27.02;17.73;;;;;;;;;;5040688;28;20033;-76
2023/10/19 07:25:20;;;;;;;30.23;18.23;;;;;;;;;;5052774;28;20060;-76
2023/10/19 07:27:46;;;;;;;26.42;17.38;;;;;;;;;;5028807;28;20082;-77
2023/10/19 07:30:15;;;;;;;25.15;17.33;;;;;;;;;;5053378;28;20146;-76
2023/10/19 07:32:40;;;;;;;27.77;17.02;;;;;;;;;;5068570;28;20040;-76
2023/10/19 07:35:06;;;;;;;30.02;17.45;;;;;;;;;;5066903;28;20036;-76
2023/10/19 07:37:31;;;;;;;28.75;17.88;;;;;;;;;;5054387;28;20115;-76
2023/10/19 07:39:57;;;;;;;29.45;17.83;;;;;;;;;;5040414;28;20036;-76
2023/10/19 07:42:23;;;;;;;30.70;17.60;;;;;;;;;;5063591;28;20040;-76
2023/10/19 07:44:49;;;;;;;28.20;17.33;;;;;;;;;;5052014;28;20535;-76
2023/10/19 07:47:24;;;;;;;27.58;17.15;;;;;;;;;;5037557;28;20032;-77
2023/10/19 07:49:51;;;;;;;26.63;16.75;;;;;;;;;;5048490;28;20043;-77
2023/10/19 07:52:17;;;;;;;;;;;;;;;;;;5038314;28;20173;-76
2023/10/19 07:54:42;;;;;;;29.10;17.10;;;;;;;;;;5047702;28;19921;-76
2023/10/19 07:57:08;;;;;;;27.30;16.55;;;;;;;;;;5049104;28;20033;-77
2023/10/19 07:59:34;;;;;;;26.52;16.85;;;;;;;;;;5049065;28;20032;-76
2023/10/19 08:02:04;;;;;;;29.52;16.83;;;;;;;;;;5045532;28;20144;-76
2023/10/19 08:04:30;;;;;;;26.25;15.80;;;;;;;;;;5035244;28;20887;-76
2023/10/19 08:06:56;;;;;;;26.02;16.27;;;;;;;;;;5035948;28;20061;-77
2023/10/19 08:09:22;;;;;;;29.83;17.60;;;;;;;;;;5048209;28;20083;-76
2023/10/19 08:11:50;;;;;;;25.30;16.15;;;;;;;;;;5064070;28;20042;-76
2023/10/19 08:14:19;;;;;;;24.92;15.50;;;;;;;;;;5061641;28;20037;-76
2023/10/19 08:16:45;;;;;;;26.83;16.30;;;;;;;;;;5067082;28;20110;-76
2023/10/19 08:19:12;;;;;;;26.50;15.65;;;;;;;;;;5067599;28;20048;-76
2023/10/19 08:21:37;;;;;;;26.93;16.10;;;;;;;;;;5046898;28;20093;-75
2023/10/19 08:24:04;;;;;;;24.95;15.32;;;;;;;;;;5066410;28;20048;-77
2023/10/19 08:26:32;;;;;;;27.03;16.90;;;;;;;;;;5058263;28;20120;-76
2023/10/19 08:28:58;;;;;;;23.55;15.73;;;;;;;;;;5066345;28;20044;-76
2023/10/19 08:31:24;;;;;;;25.48;16.30;;;;;;;;;;5049221;28;20158;-76
2023/10/19 08:33:50;;;;;;;26.35;16.10;;;;;;;;;;5067956;28;20536;-76
2023/10/19 08:36:19;;;;;;;26.42;16.10;;;;;;;;;;5069006;28;20032;-76
2023/10/19 08:38:45;;;;;;;25.85;16.25;;;;;;;;;;5054155;28;20055;-76
2023/10/19 08:41:15;;;;;;;26.25;16.55;;;;;;;;;;5059883;28;20048;-76
2023/10/19 08:44:10;;;;;;;28.25;15.98;;;;;;;;;;5048314;28;20029;-76
2023/10/19 08:46:43;;;;;;;25.23;16.23;;;;;;;;;;5032435;28;20040;-76
2023/10/19 08:49:12;;;;;;;26.80;16.33;;;;;;;;;;5034217;28;20044;-76
2023/10/19 08:51:38;;;;;;;25.65;15.98;;;;;;;;;;5042362;28;20037;-76
2023/10/19 08:54:05;;;;;;;26.77;16.80;;;;;;;;;;5048256;28;20036;-76
2023/10/19 08:56:33;;;;;;;25.65;15.95;;;;;;;;;;5029030;28;20032;-76
2023/10/19 08:59:19;;;;;;;23.60;15.45;;;;;;;;;;5030860;28;20032;-76
2023/10/19 09:01:44;;;;;;;27.33;16.90;;;;;;;;;;5005693;28;20483;-76
2023/10/19 09:04:11;;;;;;;24.80;15.95;;;;;;;;;;5021535;28;20120;-76
2023/10/19 09:13:28;;;;;;;27.52;16.38;;;;;;;;;;5036763;28;20151;-77
2023/10/19 09:15:55;;;;;;;23.90;16.35;;;;;;;;;;5021883;28;20033;-76
2023/10/19 09:21:27;;;;;;;24.80;15.70;;;;;;;;;;5013762;28;20032;-77
2023/10/19 09:23:54;;;;;;;23.88;15.80;;;;;;;;;;5005699;28;20559;-77
2023/10/19 09:26:21;;;;;;;25.67;16.88;;;;;;;;;;5021921;28;20037;-78
2023/10/19 09:28:51;;;;;;;25.40;16.00;;;;;;;;;;5030610;28;20064;-76
2023/10/19 09:31:18;;;;;;;25.88;16.15;;;;;;;;;;5019024;28;20516;-77
2023/10/19 09:33:45;;;;;;;24.65;16.60;;;;;;;;;;5025297;28;20505;-77
2023/10/19 09:36:14;;;;;;;23.20;15.70;;;;;;;;;;5026226;28;20079;-76
2023/10/19 09:38:51;;;;;;;23.73;15.73;;;;;;;;;;5026742;28;20509;-76
2023/10/19 09:41:30;;;;;;;29.33;16.73;;;;;;;;;;5043398;28;20044;-76
2023/10/19 09:44:07;;;;;;;27.38;15.95;;;;;;;;;;5037571;28;20449;-77
2023/10/19 09:46:36;;;;;;;25.42;15.68;;;;;;;;;;5059986;28;20782;-78
2023/10/19 09:49:02;;;;;;;22.92;15.80;;;;;;;;;;5076740;28;20511;-77
2023/10/19 09:51:28;;;;;;;25.48;16.25;;;;;;;;;;5062043;28;20032;-77
2023/10/19 09:53:59;;;;;;;25.75;16.23;;;;;;;;;;5074952;28;20515;-77
2023/10/19 09:56:30;;;;;;;27.23;17.23;;;;;;;;;;5073934;28;20033;-77
2023/10/19 09:58:58;;;;;;;26.17;17.48;;;;;;;;;;5075132;28;20519;-75
2023/10/19 10:01:26;;;;;;;25.60;16.70;;;;;;;;;;5059549;28;20040;-76
2023/10/19 10:03:51;;;;;;;;;;;;;;;;;;5060242;28;20032;-77
2023/10/19 10:06:27;;;;;;;25.95;16.83;;;;;;;;;;5049339;28;19923;-77
2023/10/19 10:08:53;;;;;;;25.40;16.30;;;;;;;;;;5074207;28;20433;-76
2023/10/19 10:11:28;;;;;;;26.35;17.58;;;;;;;;;;5043045;28;20032;-77
2023/10/19 10:13:57;;;;;;;28.75;18.10;;;;;;;;;;5051874;28;20434;-75
2023/10/19 10:16:28;;;;;;;28.00;18.23;;;;;;;;;;5013962;28;20119;-76
2023/10/19 10:19:20;;;;;;;25.40;17.73;;;;;;;;;;5049663;28;20082;-77
2023/10/19 10:22:05;;;;;;;27.00;18.17;;;;;;;;;;5048409;28;20044;-76
2023/10/19 10:24:40;;;;;;;27.70;18.00;;;;;;;;;;5050416;28;20512;-78
2023/10/19 10:27:06;;;;;;;27.98;18.13;;;;;;;;;;5041975;28;20029;-77
2023/10/19 10:29:32;;;;;;;28.60;19.08;;;;;;;;;;5031077;28;20063;-76
2023/10/19 10:31:58;;;;;;;29.63;18.90;;;;;;;;;;5038257;28;20040;-77
2023/10/19 10:34:35;;;;;;;28.35;19.17;;;;;;;;;;5054491;28;20033;-77
2023/10/19 10:37:02;;;;;;;31.10;18.58;;;;;;;;;;5061312;28;20032;-77
2023/10/19 10:39:30;;;;;;;29.93;18.70;;;;;;;;;;5057822;28;20058;-77
2023/10/19 10:41:59;;;;;;;32.33;20.23;;;;;;;;;;5044485;28;20194;-76
2023/10/19 10:44:45;;;;;;;31.70;20.63;;;;;;;;;;5036095;28;20075;-77
2023/10/19 10:47:21;;;;;;;34.97;21.13;;;;;;;;;;5042395;28;20135;-77
2023/10/19 10:50:00;;;;;;;35.40;20.67;;;;;;;;;;5059070;28;20517;-77
2023/10/19 10:52:32;;;;;;;34.75;21.92;;;;;;;;;;5042946;28;20033;-77
2023/10/19 10:55:07;;;;;;;36.00;21.33;;;;;;;;;;5051315;28;20044;-76
2023/10/19 10:57:34;;;;;;;35.60;21.70;;;;;;;;;;5035797;28;20108;-76
2023/10/19 11:00:15;;;;;;;33.15;20.85;;;;;;;;;;5055222;28;20607;-77
2023/10/19 11:02:49;;;;;;;36.95;23.08;;;;;;;;;;5031963;28;20033;-77
2023/10/19 11:05:18;;;;;;;37.45;22.05;;;;;;;;;;5050122;28;20044;-77
2023/10/19 11:08:16;;;;;;;34.72;22.48;;;;;;;;;;5053299;28;21212;-78
2023/10/19 11:10:44;;;;;;;35.92;22.60;;;;;;;;;;5037222;28;20055;-77
2023/10/19 11:13:20;;;;;;;35.67;22.90;;;;;;;;;;5065001;28;20028;-77
2023/10/19 11:15:54;;;;;;;39.08;23.23;;;;;;;;;;5055478;28;20082;-77
2023/10/19 11:18:32;;;;;;;34.63;22.50;;;;;;;;;;5069295;28;20048;-78
2023/10/19 11:20:59;;;;;;;34.80;22.20;;;;;;;;;;5068772;28;20032;-77
2023/10/19 11:23:42;;;;;;;31.17;22.25;;;;;;;;;;5050338;28;20492;-78
2023/10/19 11:26:12;;;;;;;35.88;21.67;;;;;;;;;;5049433;28;20115;-78
2023/10/19 11:28:43;;;;;;;34.25;22.67;;;;;;;;;;5050428;28;20078;-77
2023/10/19 11:31:19;;;;;;;37.00;22.65;;;;;;;;;;5033474;28;20029;-77
2023/10/19 11:33:55;;;;;;;33.77;21.60;;;;;;;;;;5042520;28;20033;-78
2023/10/19 11:36:21;;;;;;;32.85;22.05;;;;;;;;;;5065123;28;20283;-77
2023/10/19 11:38:54;;;;;;;35.90;22.23;;;;;;;;;;5037569;28;20060;-77
2023/10/19 11:41:19;;;;;;;33.75;21.63;;;;;;;;;;5058606;28;20105;-77
2023/10/19 11:43:46;;;;;;;34.05;21.17;;;;;;;;;;5069055;28;20415;-77
2023/10/19 11:46:12;;;;;;;31.60;20.20;;;;;;;;;;5068929;28;20036;-77
2023/10/19 11:48:39;;;;;;;34.92;22.10;;;;;;;;;;5050436;28;20031;-78
2023/10/19 11:51:05;;;;;;;35.67;21.23;;;;;;;;;;5071786;28;20032;-75
2023/10/19 11:53:33;;;;;;;31.40;21.15;;;;;;;;;;5071673;28;20102;-77
2023/10/19 11:56:06;;;;;;;32.15;21.75;;;;;;;;;;5071531;28;20028;-77
2023/10/19 11:58:37;;;;;;;33.03;20.77;;;;;;;;;;5069097;28;20039;-77
2023/10/19 12:01:05;;;;;;;37.80;22.10;;;;;;;;;;5071700;28;20567;-77
2023/10/19 12:03:31;;;;;;;34.83;22.15;;;;;;;;;;5067130;28;20036;-78
2023/10/19 12:05:57;;;;;;;35.78;23.20;;;;;;;;;;5066799;28;20052;-77
2023/10/19 12:08:22;;;;;;;38.15;23.05;;;;;;;;;;5069007;28;20064;-77
2023/10/19 12:10:52;;;;;;;37.15;24.08;;;;;;;;;;5067560;28;20039;-78
2023/10/19 12:13:17;;;;;;;38.63;23.23;;;;;;;;;;5069208;28;20035;-76
2023/10/19 12:15:51;;;;;;;36.72;23.25;;;;;;;;;;5067263;28;20048;-77
2023/10/19 12:18:17;;;;;;;37.15;23.63;;;;;;;;;;5064642;28;20496;-78
2023/10/19 12:20:45;;;;;;;35.65;23.77;;;;;;;;;;5047985;28;20040;-77
2023/10/19 12:23:10;;;;;;;37.60;22.95;;;;;;;;;;5060591;28;20035;-78
2023/10/19 12:25:38;;;;;;;36.55;24.08;;;;;;;;;;5052083;28;20032;-78
2023/10/19 12:28:04;;;;;;;38.67;24.15;;;;;;;;;;5044212;28;20557;-78
2023/10/19 12:30:35;;;;;;;40.22;24.48;;;;;;;;;;5047324;28;20033;-78
2023/10/19 12:33:01;;;;;;;35.70;23.65;;;;;;;;;;5054041;28;20382;-77
2023/10/19 12:38:16;;;;;;;37.72;24.88;;;;;;;;;;5070449;28;20079;-77
2023/10/19 12:40:44;;;;;;;39.30;24.13;;;;;;;;;;5051424;28;20047;-77
2023/10/19 12:43:10;;;;;;;39.58;25.25;;;;;;;;;;5074718;28;20028;-79
2023/10/19 12:45:36;;;;;;;38.38;24.75;;;;;;;;;;5072554;28;20044;-78
2023/10/19 12:48:04;;;;;;;40.28;25.48;;;;;;;;;;5071805;28;20369;-77
2023/10/19 12:50:30;;;;;;;37.65;24.83;;;;;;;;;;5072141;28;20067;-76
2023/10/19 12:52:56;;;;;;;40.35;25.02;;;;;;;;;;5054385;28;20063;-77
2023/10/19 12:55:22;;;;;;;42.63;25.30;;;;;;;;;;5070017;28;20063;-76
2023/10/19 12:57:48;;;;;;;41.70;25.77;;;;;;;;;;5071038;28;20036;-77
2023/10/19 13:00:26;;;;;;;39.28;23.90;;;;;;;;;;5068157;28;20029;-77
2023/10/19 13:03:00;;;;;;;38.83;24.92;;;;;;;;;;5050800;28;20112;-78
2023/10/19 13:05:36;;;;;;;41.40;25.98;;;;;;;;;;5039835;28;20037;-77
2023/10/19 13:08:05;;;;;;;43.05;26.15;;;;;;;;;;5067138;28;20385;-77
2023/10/19 13:10:32;;;;;;;38.13;25.08;;;;;;;;;;5073384;28;20040;-77
2023/10/19 13:13:03;;;;;;;38.03;25.48;;;;;;;;;;5073048;28;20032;-77
2023/10/19 13:15:32;;;;;;;41.33;26.30;;;;;;;;;;5075099;28;20066;-78
2023/10/19 13:18:01;;;;;;;42.28;26.77;;;;;;;;;;5073151;28;20040;-79
2023/10/19 13:20:28;;;;;;;40.50;25.92;;;;;;;;;;5059808;28;20090;-78
2023/10/19 13:22:56;;;;;;;41.60;27.08;;;;;;;;;;5073499;28;20059;-78
2023/10/19 13:25:38;;;;;;;46.30;28.00;;;;;;;;;;5060200;28;20043;-78
2023/10/19 13:28:08;;;;;;;42.53;26.65;;;;;;;;;;5080394;28;20040;-77
2023/10/19 13:30:36;;;;;;;44.42;27.35;;;;;;;;;;5074372;28;20763;-78
2023/10/19 13:33:04;;;;;;;43.40;26.75;;;;;;;;;;5073814;28;20040;-77
2023/10/19 13:35:30;;;;;;;43.85;27.45;;;;;;;;;;5073417;28;20031;-77
2023/10/19 13:37:56;;;;;;;43.15;27.90;;;;;;;;;;5071490;28;20040;-79
2023/10/19 13:40:23;;;;;;;43.72;28.50;;;;;;;;;;5058321;28;20114;-78
2023/10/19 13:42:49;;;;;;;46.45;28.98;;;;;;;;;;5082044;28;20044;-78
2023/10/19 13:45:14;;;;;;;45.17;28.75;;;;;;;;;;5058844;28;20097;-77
2023/10/19 13:47:40;;;;;;;44.45;27.52;;;;;;;;;;5072092;28;20046;-77
2023/10/19 13:50:07;;;;;;;46.33;29.30;;;;;;;;;;5057779;28;20040;-78
2023/10/19 13:52:34;;;;;;;45.85;29.23;;;;;;;;;;5075185;28;20068;-76
2023/10/19 13:55:00;;;;;;;;;;;;;;;;;;5073424;28;20119;-77
2023/10/19 13:57:25;;;;;;;48.33;29.27;;;;;;;;;;5071753;28;20006;-77
2023/10/19 13:59:51;;;;;;;48.47;30.30;;;;;;;;;;5075234;28;20124;-77
2023/10/19 14:02:16;;;;;;;47.70;28.98;;;;;;;;;;5075458;28;20980;-77
2023/10/19 14:04:41;;;;;;;46.88;29.73;;;;;;;;;;5073041;28;20642;-77
2023/10/19 14:07:07;;;;;;;45.55;29.15;;;;;;;;;;5073201;28;20036;-77
2023/10/19 14:09:33;;;;;;;46.38;28.73;;;;;;;;;;5071211;28;20523;-78
2023/10/19 14:11:58;;;;;;;47.53;29.77;;;;;;;;;;5058283;28;20032;-76
2023/10/19 14:14:24;;;;;;;50.83;28.40;;;;;;;;;;5074009;28;20028;-77
2023/10/19 14:16:50;;;;;;;49.25;29.92;;;;;;;;;;5072545;28;20459;-78
2023/10/19 14:19:16;;;;;;;45.38;29.83;;;;;;;;;;5073853;28;20025;-77
2023/10/19 14:21:47;;;;;;;46.53;30.23;;;;;;;;;;5050817;28;20064;-78
2023/10/19 14:24:12;;;;;;;50.13;31.08;;;;;;;;;;5054796;28;20065;-77
2023/10/19 14:26:38;;;;;;;48.92;29.70;;;;;;;;;;5038881;28;20075;-78
2023/10/19 14:29:04;;;;;;;54.67;32.05;;;;;;;;;;5037100;28;20065;-78
2023/10/19 14:31:29;;;;;;;51.75;30.98;;;;;;;;;;5051004;28;20028;-78
2023/10/19 14:33:55;;;;;;;46.83;31.02;;;;;;;;;;5051752;28;20035;-77
2023/10/19 14:36:20;;;;;;;55.10;32.65;;;;;;;;;;5036409;28;20428;-78
2023/10/19 14:38:47;;;;;;;49.70;31.80;;;;;;;;;;5043365;28;20890;-78
2023/10/19 14:41:12;;;;;;;51.80;32.30;;;;;;;;;;5055958;28;20098;-78
2023/10/19 14:43:38;;;;;;;54.83;33.85;;;;;;;;;;5053478;28;20041;-78
2023/10/19 14:46:07;;;;;;;54.50;33.00;;;;;;;;;;5053109;28;20492;-78
2023/10/19 14:48:32;;;;;;;51.67;32.78;;;;;;;;;;5061487;28;20036;-78
2023/10/19 14:50:58;;;;;;;51.20;32.70;;;;;;;;;;5034433;28;20028;-77
2023/10/19 14:53:24;;;;;;;55.42;33.25;;;;;;;;;;5055277;28;20033;-78